createdAt,value
2022-09-03T00:01:03.924Z,74.39
2022-09-03T00:03:40.826Z,74.14
2022-09-03T00:06:17.789Z,73.85
2022-09-03T00:08:54.978Z,74.67
2022-09-03T00:11:47.678Z,74.55
2022-09-03T00:14:24.483Z,74.20
2022-09-03T00:16:57.921Z,74.48
2022-09-03T00:19:29.133Z,74.36
2022-09-03T00:22:03.035Z,74.71
2022-09-03T00:24:36.575Z,74.49
2022-09-03T00:27:08.181Z,74.35
2022-09-03T00:29:43.444Z,74.51
2022-09-03T00:32:18.865Z,74.77
2022-09-03T00:34:51.698Z,74.93
2022-09-03T00:37:18.833Z,74.99
2022-09-03T00:39:45.842Z,74.66
2022-09-03T00:42:17.924Z,74.86
2022-09-03T00:44:55.265Z,74.50
2022-09-03T00:47:42.010Z,74.69
2022-09-03T00:50:15.609Z,74.87
2022-09-03T00:52:58.603Z,74.51
2022-09-03T00:55:25.971Z,73.90
2022-09-03T00:58:10.173Z,73.80
2022-09-03T01:00:39.948Z,74.11
2022-09-03T01:03:12.916Z,74.17
2022-09-03T01:05:50.359Z,74.50
2022-09-03T01:08:32.307Z,74.73
2022-09-03T01:11:30.618Z,74.44
2022-09-03T01:14:11.085Z,74.03
2022-09-03T01:16:43.970Z,74.04
2022-09-03T01:19:27.657Z,73.99
2022-09-03T01:22:21.127Z,74.21
2022-09-03T01:25:12.842Z,74.30
2022-09-03T01:27:47.314Z,74.00
2022-09-03T01:30:18.813Z,74.27
2022-09-03T01:32:54.124Z,73.92
2022-09-03T01:35:37.307Z,74.17
2022-09-03T01:38:27.521Z,74.29
2022-09-03T01:41:33.332Z,74.77
2022-09-03T01:44:06.707Z,74.93
2022-09-03T01:46:40.326Z,74.82
2022-09-03T01:49:07.776Z,75.45
2022-09-03T01:51:34.635Z,75.65
2022-09-03T01:54:21.453Z,75.06
2022-09-03T01:57:35.470Z,74.89
2022-09-03T02:00:20.703Z,75.10
2022-09-03T02:02:51.528Z,74.67
2022-09-03T02:05:23.400Z,74.40
2022-09-03T02:07:58.199Z,74.68
2022-09-03T02:10:30.516Z,75.44
2022-09-03T02:13:05.129Z,75.61
2022-09-03T02:15:34.786Z,75.94
2022-09-03T02:18:06.105Z,76.35
2022-09-03T02:20:33.798Z,76.17
2022-09-03T02:23:00.930Z,76.01
2022-09-03T02:25:37.999Z,75.93
2022-09-03T02:28:11.200Z,76.26
2022-09-03T02:30:44.720Z,76.96
2022-09-03T02:33:12.008Z,76.96
2022-09-03T02:35:40.791Z,77.22
2022-09-03T02:38:13.258Z,77.33
2022-09-03T02:40:40.067Z,77.45
2022-09-03T02:43:14.177Z,77.28
2022-09-03T02:45:48.237Z,77.25
2022-09-03T02:48:21.667Z,77.21
2022-09-03T02:50:48.550Z,77.39
2022-09-03T02:53:15.879Z,77.18
2022-09-03T02:55:42.729Z,76.93
2022-09-03T02:58:09.607Z,76.18
2022-09-03T03:00:37.410Z,75.82
2022-09-03T03:03:05.829Z,75.63
2022-09-03T03:05:44.176Z,76.06
2022-09-03T03:08:12.383Z,76.03
2022-09-03T03:10:39.152Z,76.44
2022-09-03T03:13:06.017Z,77.25
2022-09-03T03:15:32.863Z,77.04
2022-09-03T03:17:59.692Z,76.86
2022-09-03T03:20:26.510Z,77.48
2022-09-03T03:22:53.328Z,78.00
2022-09-03T03:25:20.309Z,78.21
2022-09-03T03:27:47.335Z,77.69
2022-09-03T03:30:14.733Z,77.91
2022-09-03T03:32:41.520Z,78.29
2022-09-03T03:35:08.783Z,78.26
2022-09-03T03:37:35.883Z,78.40
2022-09-03T03:40:03.448Z,78.59
2022-09-03T03:42:33.815Z,78.55
2022-09-03T03:45:02.643Z,78.56
2022-09-03T03:47:33.125Z,78.93
2022-09-03T03:50:00.174Z,78.77
2022-09-03T03:52:27.536Z,78.32
2022-09-03T03:54:55.505Z,77.68
2022-09-03T03:57:23.727Z,77.96
2022-09-03T03:59:51.127Z,78.48
2022-09-03T04:02:18.851Z,78.82
2022-09-03T04:04:45.994Z,78.53
2022-09-03T04:07:12.772Z,78.35
2022-09-03T04:09:39.636Z,78.43
2022-09-03T04:12:08.805Z,78.50
2022-09-03T04:14:35.906Z,78.53
2022-09-03T04:17:03.258Z,78.37
2022-09-03T04:19:30.382Z,78.15
2022-09-03T04:21:57.750Z,77.97
2022-09-03T04:24:24.551Z,77.84
2022-09-03T04:26:51.884Z,77.31
2022-09-03T04:29:18.855Z,77.59
2022-09-03T04:32:05.987Z,77.34
2022-09-03T04:34:32.787Z,77.27
2022-09-03T04:36:59.602Z,77.29
2022-09-03T04:39:26.600Z,77.51
2022-09-03T04:41:53.476Z,77.52
2022-09-03T04:44:20.323Z,77.56
2022-09-03T04:46:48.314Z,77.77
2022-09-03T04:49:15.219Z,77.41
2022-09-03T04:51:42.267Z,77.86
2022-09-03T04:54:10.353Z,77.59
2022-09-03T04:56:40.103Z,77.65
2022-09-03T04:59:09.222Z,77.41
2022-09-03T05:01:38.816Z,76.94
2022-09-03T05:04:07.606Z,76.70
2022-09-03T05:06:35.335Z,76.47
2022-09-03T05:09:02.547Z,76.19
2022-09-03T05:11:30.238Z,75.94
2022-09-03T05:13:59.443Z,75.64
2022-09-03T05:16:29.033Z,75.56
2022-09-03T05:18:59.094Z,74.88
2022-09-03T05:21:26.642Z,74.85
2022-09-03T05:23:53.566Z,74.31
2022-09-03T05:26:24.058Z,73.86
2022-09-03T05:28:59.151Z,73.60
2022-09-03T05:31:29.229Z,73.15
2022-09-03T05:33:59.840Z,72.64
2022-09-03T05:36:30.330Z,72.71
2022-09-03T05:38:59.079Z,73.03
2022-09-03T05:41:27.300Z,72.71
2022-09-03T05:43:56.074Z,72.20
2022-09-03T05:46:31.715Z,71.64
2022-09-03T05:49:01.444Z,71.09
2022-09-03T05:51:29.026Z,71.06
2022-09-03T05:53:56.090Z,70.34
2022-09-03T05:56:24.903Z,69.65
2022-09-03T05:58:54.274Z,69.42
2022-09-03T06:01:31.271Z,68.96
2022-09-03T06:04:00.796Z,68.16
2022-09-03T06:06:29.683Z,67.58
2022-09-03T06:08:58.938Z,67.23
2022-09-03T06:11:28.382Z,66.53
2022-09-03T06:13:56.699Z,66.24
2022-09-03T06:16:30.832Z,65.33
2022-09-03T06:19:00.555Z,65.00
2022-09-03T06:21:27.903Z,65.11
2022-09-03T06:23:59.699Z,64.54
2022-09-03T06:26:29.251Z,63.78
2022-09-03T06:28:57.640Z,63.66
2022-09-03T06:31:25.198Z,63.01
2022-09-03T06:33:54.724Z,62.23
2022-09-03T06:36:23.937Z,61.95
2022-09-03T06:38:53.611Z,61.59
2022-09-03T06:41:25.175Z,61.45
2022-09-03T06:43:54.879Z,60.76
2022-09-03T06:46:24.023Z,61.06
2022-09-03T06:48:51.927Z,60.83
2022-09-03T06:51:21.994Z,60.87
2022-09-03T06:53:51.681Z,61.23
2022-09-03T06:56:29.041Z,61.35
2022-09-03T06:58:58.098Z,60.55
2022-09-03T07:01:28.401Z,60.17
2022-09-03T07:03:57.901Z,60.43
2022-09-03T07:06:27.461Z,59.38
2022-09-03T07:08:55.816Z,58.24
2022-09-03T07:11:25.545Z,57.47
2022-09-03T07:13:53.797Z,57.39
2022-09-03T07:16:23.619Z,56.89
2022-09-03T07:18:51.500Z,56.95
2022-09-03T07:21:21.482Z,56.34
2022-09-03T07:23:49.574Z,56.97
2022-09-03T07:26:20.176Z,56.80
2022-09-03T07:28:48.926Z,57.11
2022-09-03T07:31:19.903Z,56.85
2022-09-03T07:33:47.576Z,57.50
2022-09-03T07:36:17.255Z,57.64
2022-09-03T07:38:45.895Z,58.62
2022-09-03T07:41:26.816Z,58.28
2022-09-03T07:43:55.582Z,57.63
2022-09-03T07:46:25.248Z,57.77
2022-09-03T07:48:54.920Z,56.73
2022-09-03T07:51:26.684Z,56.37
2022-09-03T07:53:56.333Z,56.80
2022-09-03T07:56:24.094Z,56.70
2022-09-03T07:58:51.044Z,55.98
2022-09-03T08:01:20.668Z,55.80
2022-09-03T08:03:49.988Z,56.01
2022-09-03T08:06:18.898Z,55.09
2022-09-03T08:08:46.231Z,55.49
2022-09-03T08:11:16.069Z,55.85
2022-09-03T08:13:45.788Z,55.06
2022-09-03T08:16:14.294Z,54.20
2022-09-03T08:18:41.151Z,53.72
2022-09-03T08:21:14.131Z,53.41
2022-09-03T08:23:42.846Z,53.15
2022-09-03T08:26:10.925Z,52.52
2022-09-03T08:28:38.815Z,52.50
2022-09-03T08:31:18.351Z,52.98
2022-09-03T08:33:47.927Z,52.21
2022-09-03T08:36:19.287Z,53.12
2022-09-03T08:38:46.995Z,52.83
2022-09-03T08:41:21.471Z,52.35
2022-09-03T08:43:58.291Z,52.64
2022-09-03T08:46:39.082Z,52.23
2022-09-03T08:49:11.788Z,52.81
2022-09-03T08:51:40.475Z,52.28
2022-09-03T08:54:11.447Z,52.49
2022-09-03T08:56:41.991Z,53.45
2022-09-03T08:59:10.161Z,53.78
2022-09-03T09:02:00.504Z,54.10
2022-09-03T09:04:35.165Z,54.14
2022-09-03T09:07:11.387Z,54.37
2022-09-03T09:09:39.877Z,53.60
2022-09-03T09:12:41.379Z,53.00
2022-09-03T09:15:34.565Z,52.97
2022-09-03T09:18:03.129Z,53.01
2022-09-03T09:20:50.282Z,53.34
2022-09-03T09:23:27.233Z,52.81
2022-09-03T09:25:57.840Z,52.47
2022-09-03T09:28:31.356Z,52.54
2022-09-03T09:30:58.687Z,52.34
2022-09-03T09:33:25.695Z,52.19
2022-09-03T09:35:52.610Z,52.23
2022-09-03T09:38:33.154Z,52.73
2022-09-03T09:41:16.901Z,52.60
2022-09-03T09:43:44.505Z,52.62
2022-09-03T09:46:15.142Z,52.78
2022-09-03T09:48:50.341Z,53.42
2022-09-03T09:51:28.336Z,53.97
2022-09-03T09:54:12.661Z,53.82
2022-09-03T09:56:42.293Z,53.29
2022-09-03T09:59:11.494Z,53.15
2022-09-03T10:01:41.240Z,52.86
2022-09-03T10:04:11.869Z,53.54
2022-09-03T10:06:54.915Z,53.68
2022-09-03T10:09:31.138Z,54.11
2022-09-03T10:12:05.722Z,54.46
2022-09-03T10:14:39.887Z,53.80
2022-09-03T10:17:19.895Z,54.17
2022-09-03T10:20:34.214Z,54.18
2022-09-03T10:23:04.943Z,53.90
2022-09-03T10:25:56.469Z,53.39
2022-09-03T10:28:26.950Z,53.37
2022-09-03T10:30:58.082Z,53.31
2022-09-03T10:33:33.578Z,53.92
2022-09-03T10:36:13.637Z,54.80
2022-09-03T10:38:44.026Z,54.88
2022-09-03T10:41:20.288Z,54.72
2022-09-03T10:44:18.940Z,54.15
2022-09-03T10:47:03.064Z,54.54
2022-09-03T10:49:35.721Z,54.78
2022-09-03T10:52:12.558Z,55.21
2022-09-03T10:54:41.038Z,55.89
2022-09-03T10:57:43.578Z,54.82
2022-09-03T11:00:13.237Z,56.21
2022-09-03T11:02:55.953Z,56.50
2022-09-03T11:05:38.660Z,56.31
2022-09-03T11:08:09.817Z,56.76
2022-09-03T11:10:44.316Z,56.10
2022-09-03T11:13:22.150Z,55.87
2022-09-03T11:15:54.089Z,55.84
2022-09-03T11:18:35.179Z,55.91
2022-09-03T11:21:11.867Z,55.98
2022-09-03T11:23:45.395Z,55.79
2022-09-03T11:26:17.274Z,56.17
2022-09-03T11:29:06.075Z,56.56
2022-09-03T11:31:38.293Z,56.80
2022-09-03T11:34:14.134Z,56.09
2022-09-03T11:36:50.667Z,56.15
2022-09-03T11:39:35.650Z,55.22
2022-09-03T11:42:10.736Z,56.27
2022-09-03T11:44:51.037Z,56.09
2022-09-03T11:47:20.580Z,56.25
2022-09-03T11:49:51.311Z,56.09
2022-09-03T11:52:33.782Z,56.41
2022-09-03T11:55:00.677Z,54.94
2022-09-03T11:57:29.885Z,54.79
2022-09-03T12:00:14.921Z,55.20
2022-09-03T12:02:48.673Z,54.45
2022-09-03T12:05:16.768Z,52.81
2022-09-03T12:08:08.179Z,53.89
2022-09-03T12:11:09.920Z,54.13
2022-09-03T12:13:51.060Z,53.95
2022-09-03T12:16:32.266Z,53.19
2022-09-03T12:19:12.578Z,53.16
2022-09-03T12:21:41.122Z,53.05
2022-09-03T12:24:13.431Z,51.60
2022-09-03T12:26:42.926Z,50.66
2022-09-03T12:29:27.700Z,48.70
2022-09-03T12:31:56.638Z,45.98
2022-09-03T12:34:25.937Z,43.63
2022-09-03T12:36:55.567Z,42.82
2022-09-03T12:42:20.071Z,43.19
2022-09-03T12:44:46.931Z,42.92
2022-09-03T12:47:37.396Z,41.08
2022-09-03T12:50:17.059Z,42.03
2022-09-03T12:52:48.407Z,41.44
2022-09-03T12:55:32.240Z,43.07
2022-09-03T12:58:10.252Z,41.59
2022-09-03T13:00:47.088Z,40.80
2022-09-03T13:03:24.822Z,39.77
2022-09-03T13:05:57.345Z,38.82
2022-09-03T13:08:28.125Z,38.37
2022-09-03T13:10:57.632Z,37.79
2022-09-03T13:13:27.953Z,36.85
2022-09-03T13:16:10.720Z,36.22
2022-09-03T13:18:54.988Z,36.12
2022-09-03T13:21:32.501Z,35.47
2022-09-03T13:24:31.892Z,35.60
2022-09-03T13:27:18.828Z,35.48
2022-09-03T13:29:46.289Z,35.10
2022-09-03T13:32:21.130Z,36.33
2022-09-03T13:35:11.788Z,36.07
2022-09-03T13:37:46.470Z,36.78
2022-09-03T13:40:42.171Z,35.86
2022-09-03T13:43:28.345Z,34.84
2022-09-03T13:46:02.478Z,34.44
2022-09-03T13:48:55.678Z,33.82
2022-09-03T13:51:31.786Z,34.41
2022-09-03T13:54:06.907Z,35.40
2022-09-03T13:56:49.780Z,35.75
2022-09-03T13:59:29.358Z,36.64
2022-09-03T14:02:15.835Z,37.60
2022-09-03T14:04:58.857Z,37.25
2022-09-03T14:07:39.107Z,37.73
2022-09-03T14:10:21.762Z,37.56
2022-09-03T14:13:04.197Z,36.41
2022-09-03T14:15:45.483Z,37.15
2022-09-03T14:18:23.884Z,37.34
2022-09-03T14:21:22.470Z,37.75
2022-09-03T14:24:01.062Z,36.81
2022-09-03T14:26:39.511Z,36.52
2022-09-03T14:29:16.521Z,36.08
2022-09-03T14:32:06.723Z,35.58
2022-09-03T14:34:41.305Z,35.96
2022-09-03T14:37:09.790Z,36.13
2022-09-03T14:39:39.345Z,36.16
2022-09-03T14:42:07.853Z,37.71
2022-09-03T14:44:51.034Z,38.29
2022-09-03T14:47:36.723Z,39.59
2022-09-03T14:50:11.500Z,40.79
2022-09-03T14:52:57.772Z,41.93
2022-09-03T14:55:43.909Z,42.92
2022-09-03T14:58:42.402Z,43.95
2022-09-03T15:01:37.582Z,45.41
2022-09-03T15:04:18.388Z,46.08
2022-09-03T15:07:12.370Z,46.93
2022-09-03T15:09:45.306Z,47.03
2022-09-03T15:12:13.848Z,48.07
2022-09-03T15:14:47.906Z,48.20
2022-09-03T15:17:15.628Z,49.04
2022-09-03T15:19:51.474Z,50.02
2022-09-03T15:22:35.499Z,50.31
2022-09-03T15:25:17.751Z,50.67
2022-09-03T15:27:53.263Z,50.74
2022-09-03T15:30:21.070Z,51.78
2022-09-03T15:32:49.764Z,52.00
2022-09-03T15:35:29.429Z,51.97
2022-09-03T15:38:00.295Z,52.42
2022-09-03T15:40:31.997Z,52.56
2022-09-03T15:43:09.224Z,52.65
2022-09-03T15:45:39.835Z,52.68
2022-09-03T15:48:26.990Z,52.63
2022-09-03T15:51:10.108Z,53.27
2022-09-03T15:53:46.269Z,53.36
2022-09-03T15:56:23.697Z,53.46
2022-09-03T15:58:58.976Z,53.37
2022-09-03T16:01:41.062Z,53.44
2022-09-03T16:04:36.554Z,53.95
2022-09-03T16:07:20.382Z,54.37
2022-09-03T16:10:25.954Z,54.67
2022-09-03T16:13:25.522Z,55.38
2022-09-03T16:16:11.570Z,55.86
2022-09-03T16:18:47.884Z,56.00
2022-09-03T16:21:32.011Z,56.05
2022-09-03T16:24:04.058Z,56.21
2022-09-03T16:26:50.049Z,56.45
2022-09-03T16:29:19.474Z,57.04
2022-09-03T16:32:02.154Z,56.98
2022-09-03T16:34:50.416Z,57.45
2022-09-03T16:37:26.931Z,57.02
2022-09-03T16:40:17.548Z,57.38
2022-09-03T16:42:44.913Z,57.46
2022-09-03T16:45:27.599Z,57.65
2022-09-03T16:48:25.699Z,58.07
2022-09-03T16:51:14.107Z,58.50
2022-09-03T16:54:09.228Z,58.63
2022-09-03T16:56:52.065Z,59.01
2022-09-03T16:59:35.917Z,59.62
2022-09-03T17:02:39.860Z,59.94
2022-09-03T17:05:39.927Z,60.45
2022-09-03T17:08:30.889Z,60.93
2022-09-03T17:11:29.067Z,61.44
2022-09-03T17:14:02.453Z,61.66
2022-09-03T17:16:34.920Z,62.10
2022-09-03T17:19:10.891Z,62.63
2022-09-03T17:21:46.345Z,62.90
2022-09-03T17:24:33.539Z,63.31
2022-09-03T17:27:26.632Z,63.48
2022-09-03T17:30:10.845Z,63.77
2022-09-03T17:32:57.641Z,64.24
2022-09-03T17:35:38.097Z,64.43
2022-09-03T17:38:06.907Z,64.77
2022-09-03T17:40:44.525Z,64.98
2022-09-03T17:43:24.931Z,65.43
2022-09-03T17:46:05.505Z,65.71
2022-09-03T17:48:34.221Z,66.01
2022-09-03T17:51:10.481Z,66.03
2022-09-03T17:53:55.302Z,66.28
2022-09-03T17:56:30.029Z,66.71
2022-09-03T17:59:15.992Z,67.01
2022-09-03T18:01:53.014Z,67.11
2022-09-03T18:04:39.375Z,67.43
2022-09-03T18:07:10.384Z,67.76
2022-09-03T18:10:02.445Z,68.03
2022-09-03T18:13:03.694Z,68.63
2022-09-03T18:15:43.567Z,69.14
2022-09-03T18:18:19.262Z,69.48
2022-09-03T18:21:26.637Z,69.83
2022-09-03T18:24:21.634Z,69.87
2022-09-03T18:27:14.533Z,70.30
2022-09-03T18:30:07.733Z,70.40
2022-09-03T18:32:50.357Z,70.54
2022-09-03T18:35:33.380Z,70.86
2022-09-03T18:38:19.570Z,70.73
2022-09-03T18:41:21.959Z,70.93
2022-09-03T18:44:08.276Z,71.40
2022-09-03T18:48:02.946Z,71.60
2022-09-03T18:50:44.101Z,71.74
2022-09-03T18:53:40.248Z,71.90
2022-09-03T18:56:35.835Z,72.39
2022-09-03T18:59:53.944Z,72.84
2022-09-03T19:03:01.966Z,73.02
2022-09-03T19:05:56.448Z,73.05
2022-09-03T19:08:48.006Z,73.46
2022-09-03T19:11:41.075Z,73.70
2022-09-03T19:14:41.794Z,73.99
2022-09-03T19:17:41.530Z,73.87
2022-09-03T19:20:35.019Z,74.20
2022-09-03T19:23:18.977Z,74.42
2022-09-03T19:26:01.713Z,74.31
2022-09-03T19:28:47.130Z,74.25
2022-09-03T19:31:43.741Z,74.60
2022-09-03T19:35:01.911Z,74.73
2022-09-03T19:38:01.607Z,74.75
2022-09-03T19:41:01.343Z,74.79
2022-09-03T19:44:01.046Z,74.69
2022-09-03T19:46:49.958Z,75.11
2022-09-03T19:49:48.984Z,74.53
2022-09-03T19:53:03.256Z,74.59
2022-09-03T19:55:51.150Z,74.51
2022-09-03T19:58:43.491Z,74.64
2022-09-03T20:01:28.183Z,74.84
2022-09-03T20:04:12.936Z,74.81
2022-09-03T20:06:55.774Z,75.18
2022-09-03T20:09:45.788Z,75.32
2022-09-03T20:12:16.498Z,75.45
2022-09-03T20:14:43.339Z,75.11
2022-09-03T20:17:13.075Z,75.96
2022-09-03T20:19:41.654Z,76.55
2022-09-03T20:22:29.262Z,76.55
2022-09-03T20:25:07.452Z,74.71
2022-09-03T20:27:42.268Z,74.88
2022-09-03T20:30:16.231Z,74.64
2022-09-03T20:33:14.327Z,75.22
2022-09-03T20:36:13.525Z,74.93
2022-09-03T20:38:58.927Z,75.37
2022-09-03T20:41:48.839Z,75.86
2022-09-03T20:44:34.999Z,77.18
2022-09-03T20:47:33.526Z,78.34
2022-09-03T20:50:10.424Z,79.09
2022-09-03T20:52:56.863Z,79.50
2022-09-03T20:55:28.219Z,79.76
2022-09-03T20:58:11.856Z,79.66
2022-09-03T21:00:53.751Z,79.31
2022-09-03T21:03:25.572Z,79.54
2022-09-03T21:06:14.668Z,79.16
2022-09-03T21:08:48.803Z,78.90
2022-09-03T21:11:29.646Z,78.65
2022-09-03T21:14:25.030Z,78.38
2022-09-03T21:17:09.153Z,78.06
2022-09-03T21:19:46.343Z,77.68
2022-09-03T21:22:44.751Z,77.37
2022-09-03T21:25:16.957Z,76.99
2022-09-03T21:27:51.180Z,76.68
2022-09-03T21:30:20.525Z,76.53
2022-09-03T21:33:06.553Z,76.43
2022-09-03T21:35:38.819Z,76.15
2022-09-03T21:38:08.726Z,75.85
2022-09-03T21:40:41.905Z,75.62
2022-09-03T21:43:21.990Z,75.30
2022-09-03T21:46:02.038Z,75.03
2022-09-03T21:48:35.810Z,74.87
2022-09-03T21:51:14.410Z,74.37
2022-09-03T21:53:48.361Z,74.00
2022-09-03T21:56:25.574Z,73.75
2022-09-03T21:59:11.873Z,73.53
2022-09-03T22:02:05.363Z,73.20
2022-09-03T22:04:32.999Z,72.88
2022-09-03T22:07:31.452Z,72.85
2022-09-03T22:10:26.262Z,72.35
2022-09-03T22:13:14.753Z,72.34
2022-09-03T22:15:51.789Z,72.27
2022-09-03T22:18:28.501Z,72.17
2022-09-03T22:21:01.672Z,72.47
2022-09-03T22:23:44.435Z,72.51
2022-09-03T22:26:22.717Z,72.60
2022-09-03T22:29:09.378Z,72.45
2022-09-03T22:31:36.782Z,72.48
2022-09-03T22:34:15.081Z,72.42
2022-09-03T22:36:50.588Z,72.26
2022-09-03T22:39:39.167Z,72.21
2022-09-03T22:42:13.800Z,71.95
2022-09-03T22:44:56.629Z,71.69
2022-09-03T22:47:47.684Z,71.64
2022-09-03T22:50:35.456Z,71.59
2022-09-03T22:53:25.494Z,71.39
2022-09-03T22:55:59.958Z,71.27
2022-09-03T22:58:31.214Z,71.36
2022-09-03T23:01:07.878Z,71.15
2022-09-03T23:03:42.395Z,71.13
2022-09-03T23:06:21.579Z,71.23
2022-09-03T23:08:57.188Z,71.06
2022-09-03T23:11:34.800Z,71.17
2022-09-03T23:14:08.291Z,71.09
2022-09-03T23:17:00.629Z,70.92
2022-09-03T23:19:41.099Z,71.11
2022-09-03T23:22:13.364Z,71.01
2022-09-03T23:24:45.086Z,71.13
2022-09-03T23:27:21.078Z,71.17
2022-09-03T23:29:54.377Z,71.18
2022-09-03T23:32:22.096Z,71.13
2022-09-03T23:34:49.220Z,71.22
2022-09-03T23:37:35.439Z,71.35
2022-09-03T23:40:10.469Z,71.21
2022-09-03T23:42:54.015Z,71.24
2022-09-03T23:45:30.146Z,71.41
2022-09-03T23:48:30.062Z,71.54
2022-09-03T23:51:06.587Z,71.68
2022-09-03T23:53:49.426Z,71.76
2022-09-03T23:56:41.042Z,72.01
2022-09-03T23:59:32.613Z,72.28
